sensor_id;sensor_type;location;lat;lon;timestamp;pressure;altitude;pressure_sealevel;temperature;humidity
37856;BME280;23694;43.274;26.924;2023-09-19T00:05:39;99278.84;;;16.45;85.59
37856;BME280;23694;43.274;26.924;2023-09-19T00:08:39;99272.59;;;16.46;85.48
37856;BME280;23694;43.274;26.924;2023-09-19T00:11:45;99285.28;;;16.52;85.51
37856;BME280;23694;43.274;26.924;2023-09-19T00:14:44;99284.53;;;16.40;85.50
37856;BME280;23694;43.274;26.924;2023-09-19T00:17:26;99278.53;;;16.38;86.48
37856;BME280;23694;43.274;26.924;2023-09-19T00:20:28;99276.19;;;16.45;86.20
37856;BME280;23694;43.274;26.924;2023-09-19T00:23:06;99269.09;;;16.45;86.12
37856;BME280;23694;43.274;26.924;2023-09-19T00:28:39;99266.63;;;16.54;85.62
37856;BME280;23694;43.274;26.924;2023-09-19T00:31:46;99265.22;;;16.49;85.64
37856;BME280;23694;43.274;26.924;2023-09-19T00:34:29;99267.19;;;16.57;85.19
37856;BME280;23694;43.274;26.924;2023-09-19T00:37:05;99278.88;;;16.55;85.19
37856;BME280;23694;43.274;26.924;2023-09-19T00:39:45;99273.13;;;16.40;86.05
37856;BME280;23694;43.274;26.924;2023-09-19T00:42:31;99274.31;;;16.26;86.72
37856;BME280;23694;43.274;26.924;2023-09-19T00:45:07;99269.53;;;16.20;87.49
37856;BME280;23694;43.274;26.924;2023-09-19T00:47:50;99269.03;;;16.26;87.50
37856;BME280;23694;43.274;26.924;2023-09-19T00:50:33;99269.06;;;16.36;87.14
37856;BME280;23694;43.274;26.924;2023-09-19T00:53:06;99272.97;;;16.41;86.47
37856;BME280;23694;43.274;26.924;2023-09-19T00:58:31;99284.22;;;16.34;86.75
37856;BME280;23694;43.274;26.924;2023-09-19T01:01:34;99282.13;;;16.28;87.05
37856;BME280;23694;43.274;26.924;2023-09-19T01:04:29;99285.38;;;16.20;87.11
37856;BME280;23694;43.274;26.924;2023-09-19T01:07:17;99282.88;;;16.18;87.57
37856;BME280;23694;43.274;26.924;2023-09-19T01:10:08;99279.13;;;16.21;87.59
37856;BME280;23694;43.274;26.924;2023-09-19T01:12:55;99279.25;;;16.20;87.75
37856;BME280;23694;43.274;26.924;2023-09-19T01:19:02;99272.63;;;16.25;87.99
37856;BME280;23694;43.274;26.924;2023-09-19T01:22:37;99272.38;;;16.28;88.09
37856;BME280;23694;43.274;26.924;2023-09-19T01:31:28;99271.59;;;16.16;88.11
37856;BME280;23694;43.274;26.924;2023-09-19T01:34:02;99273.41;;;16.16;88.25
37856;BME280;23694;43.274;26.924;2023-09-19T01:36:46;99267.16;;;16.17;88.51
37856;BME280;23694;43.274;26.924;2023-09-19T01:39:29;99264.13;;;16.22;88.24
37856;BME280;23694;43.274;26.924;2023-09-19T01:45:04;99256.97;;;16.12;88.91
37856;BME280;23694;43.274;26.924;2023-09-19T01:47:54;99253.91;;;16.07;88.98
37856;BME280;23694;43.274;26.924;2023-09-19T01:51:06;99261.34;;;15.93;89.80
37856;BME280;23694;43.274;26.924;2023-09-19T01:54:00;99256.22;;;16.01;89.53
37856;BME280;23694;43.274;26.924;2023-09-19T01:57:09;99263.13;;;15.92;90.15
37856;BME280;23694;43.274;26.924;2023-09-19T02:00:07;99259.66;;;15.92;90.26
37856;BME280;23694;43.274;26.924;2023-09-19T02:02:53;99261.78;;;15.98;89.67
37856;BME280;23694;43.274;26.924;2023-09-19T02:05:39;99261.53;;;16.01;89.29
37856;BME280;23694;43.274;26.924;2023-09-19T02:11:07;99260.25;;;15.95;89.57
37856;BME280;23694;43.274;26.924;2023-09-19T02:13:54;99259.41;;;15.95;89.62
37856;BME280;23694;43.274;26.924;2023-09-19T02:16:52;99266.53;;;16.04;89.35
37856;BME280;23694;43.274;26.924;2023-09-19T02:19:33;99265.44;;;16.06;89.21
37856;BME280;23694;43.274;26.924;2023-09-19T02:22:07;99265.03;;;16.11;88.79
37856;BME280;23694;43.274;26.924;2023-09-19T02:24:52;99257.19;;;16.00;89.20
37856;BME280;23694;43.274;26.924;2023-09-19T02:27:35;99254.00;;;15.96;89.71
37856;BME280;23694;43.274;26.924;2023-09-19T02:30:07;99254.13;;;15.95;89.76
37856;BME280;23694;43.274;26.924;2023-09-19T02:32:45;99252.75;;;16.00;89.28
37856;BME280;23694;43.274;26.924;2023-09-19T02:35:35;99245.56;;;15.81;90.49
37856;BME280;23694;43.274;26.924;2023-09-19T02:38:26;99240.41;;;15.80;90.91
37856;BME280;23694;43.274;26.924;2023-09-19T02:41:04;99238.22;;;15.85;90.45
37856;BME280;23694;43.274;26.924;2023-09-19T02:43:59;99236.41;;;15.85;90.27
37856;BME280;23694;43.274;26.924;2023-09-19T02:46:47;99236.03;;;15.90;90.40
37856;BME280;23694;43.274;26.924;2023-09-19T02:52:16;99241.25;;;15.80;90.52
37856;BME280;23694;43.274;26.924;2023-09-19T02:54:50;99240.03;;;15.64;92.15
37856;BME280;23694;43.274;26.924;2023-09-19T02:57:35;99232.63;;;15.78;91.39
37856;BME280;23694;43.274;26.924;2023-09-19T03:00:24;99232.28;;;15.93;90.17
37856;BME280;23694;43.274;26.924;2023-09-19T03:03:06;99225.03;;;15.53;92.22
37856;BME280;23694;43.274;26.924;2023-09-19T03:05:44;99218.22;;;15.62;92.13
37856;BME280;23694;43.274;26.924;2023-09-19T03:08:44;99215.06;;;15.68;91.92
37856;BME280;23694;43.274;26.924;2023-09-19T03:11:35;99223.88;;;15.78;91.80
37856;BME280;23694;43.274;26.924;2023-09-19T03:14:45;99233.03;;;15.42;92.32
37856;BME280;23694;43.274;26.924;2023-09-19T03:17:27;99226.72;;;15.33;93.40
37856;BME280;23694;43.274;26.924;2023-09-19T03:20:06;99218.75;;;15.44;93.55
37856;BME280;23694;43.274;26.924;2023-09-19T03:25:39;99205.22;;;15.38;93.63
37856;BME280;23694;43.274;26.924;2023-09-19T03:28:19;99223.00;;;15.36;93.90
37856;BME280;23694;43.274;26.924;2023-09-19T03:31:22;99215.78;;;15.38;94.41
37856;BME280;23694;43.274;26.924;2023-09-19T03:34:06;99209.28;;;15.42;94.51
37856;BME280;23694;43.274;26.924;2023-09-19T03:36:49;99210.75;;;15.55;93.62
37856;BME280;23694;43.274;26.924;2023-09-19T03:39:43;99205.59;;;15.65;92.74
37856;BME280;23694;43.274;26.924;2023-09-19T03:42:27;99212.16;;;15.71;91.93
37856;BME280;23694;43.274;26.924;2023-09-19T03:45:10;99213.94;;;15.70;91.87
37856;BME280;23694;43.274;26.924;2023-09-19T03:48:07;99207.13;;;15.68;91.86
37856;BME280;23694;43.274;26.924;2023-09-19T03:50:53;99210.03;;;15.65;91.84
37856;BME280;23694;43.274;26.924;2023-09-19T03:53:35;99202.47;;;15.60;92.06
37856;BME280;23694;43.274;26.924;2023-09-19T03:56:14;99215.06;;;15.68;91.91
37856;BME280;23694;43.274;26.924;2023-09-19T03:58:54;99207.53;;;15.63;92.19
37856;BME280;23694;43.274;26.924;2023-09-19T04:01:38;99210.28;;;15.62;92.41
37856;BME280;23694;43.274;26.924;2023-09-19T04:04:06;99211.50;;;15.78;91.88
37856;BME280;23694;43.274;26.924;2023-09-19T04:06:50;99216.56;;;15.91;91.29
37856;BME280;23694;43.274;26.924;2023-09-19T04:09:29;99220.63;;;16.26;89.71
37856;BME280;23694;43.274;26.924;2023-09-19T04:12:05;99219.44;;;16.59;87.55
37856;BME280;23694;43.274;26.924;2023-09-19T04:14:47;99222.03;;;16.89;85.83
37856;BME280;23694;43.274;26.924;2023-09-19T04:20:25;99216.88;;;17.65;81.41
37856;BME280;23694;43.274;26.924;2023-09-19T04:23:05;99220.81;;;18.08;79.00
37856;BME280;23694;43.274;26.924;2023-09-19T04:25:50;99214.91;;;18.51;77.24
37856;BME280;23694;43.274;26.924;2023-09-19T04:31:29;99210.16;;;19.53;71.94
37856;BME280;23694;43.274;26.924;2023-09-19T04:34:08;99216.88;;;20.17;69.42
37856;BME280;23694;43.274;26.924;2023-09-19T04:36:51;99214.25;;;20.75;66.67
37856;BME280;23694;43.274;26.924;2023-09-19T04:42:31;99216.44;;;22.26;59.34
37856;BME280;23694;43.274;26.924;2023-09-19T04:45:06;99213.28;;;22.93;56.22
37856;BME280;23694;43.274;26.924;2023-09-19T04:47:42;99219.41;;;23.85;53.03
37856;BME280;23694;43.274;26.924;2023-09-19T04:50:37;99223.06;;;24.87;49.64
37856;BME280;23694;43.274;26.924;2023-09-19T04:53:11;99220.41;;;25.72;47.05
37856;BME280;23694;43.274;26.924;2023-09-19T04:56:05;99224.03;;;26.55;44.63
37856;BME280;23694;43.274;26.924;2023-09-19T05:01:39;99246.25;;;27.84;41.24
37856;BME280;23694;43.274;26.924;2023-09-19T05:07:07;99237.53;;;29.24;37.35
37856;BME280;23694;43.274;26.924;2023-09-19T05:15:47;99239.50;;;31.20;33.56
37856;BME280;23694;43.274;26.924;2023-09-19T05:18:48;99228.03;;;32.01;31.43
37856;BME280;23694;43.274;26.924;2023-09-19T05:21:33;99238.91;;;32.65;30.60
37856;BME280;23694;43.274;26.924;2023-09-19T05:24:18;99236.94;;;32.37;30.54
37856;BME280;23694;43.274;26.924;2023-09-19T05:26:56;99238.97;;;32.30;30.71
37856;BME280;23694;43.274;26.924;2023-09-19T05:29:48;99243.75;;;32.51;29.85
37856;BME280;23694;43.274;26.924;2023-09-19T05:32:39;99243.72;;;30.13;33.99
37856;BME280;23694;43.274;26.924;2023-09-19T05:38:16;99244.38;;;28.89;35.99
37856;BME280;23694;43.274;26.924;2023-09-19T05:40:59;99243.56;;;29.26;35.69
37856;BME280;23694;43.274;26.924;2023-09-19T05:43:43;99246.13;;;28.63;36.39
37856;BME280;23694;43.274;26.924;2023-09-19T05:46:18;99244.00;;;28.79;36.81
37856;BME280;23694;43.274;26.924;2023-09-19T05:48:59;99233.63;;;27.98;38.63
37856;BME280;23694;43.274;26.924;2023-09-19T05:51:37;99222.00;;;28.10;37.78
37856;BME280;23694;43.274;26.924;2023-09-19T05:54:11;99234.81;;;29.31;35.78
37856;BME280;23694;43.274;26.924;2023-09-19T05:56:47;99228.94;;;30.15;34.11
37856;BME280;23694;43.274;26.924;2023-09-19T05:59:30;99234.50;;;31.35;32.42
37856;BME280;23694;43.274;26.924;2023-09-19T06:02:28;99238.44;;;31.63;31.46
37856;BME280;23694;43.274;26.924;2023-09-19T06:05:04;99229.72;;;29.97;34.14
37856;BME280;23694;43.274;26.924;2023-09-19T06:07:44;99226.59;;;27.70;38.30
37856;BME280;23694;43.274;26.924;2023-09-19T06:10:27;99219.41;;;26.01;42.26
37856;BME280;23694;43.274;26.924;2023-09-19T06:13:04;99217.75;;;23.98;47.69
37856;BME280;23694;43.274;26.924;2023-09-19T06:15:37;99236.34;;;23.17;51.74
37856;BME280;23694;43.274;26.924;2023-09-19T06:21:26;99233.19;;;21.39;59.86
37856;BME280;23694;43.274;26.924;2023-09-19T06:24:05;99231.44;;;20.13;66.74
37856;BME280;23694;43.274;26.924;2023-09-19T06:26:51;99237.97;;;19.67;71.06
37856;BME280;23694;43.274;26.924;2023-09-19T06:29:34;99234.44;;;19.58;72.99
37856;BME280;23694;43.274;26.924;2023-09-19T06:38:21;99220.25;;;20.01;72.00
37856;BME280;23694;43.274;26.924;2023-09-19T06:41:10;99220.41;;;19.74;72.14
37856;BME280;23694;43.274;26.924;2023-09-19T06:43:56;99226.03;;;18.64;78.71
37856;BME280;23694;43.274;26.924;2023-09-19T06:46:37;99224.97;;;19.46;76.05
37856;BME280;23694;43.274;26.924;2023-09-19T06:49:35;99230.59;;;20.38;72.10
37856;BME280;23694;43.274;26.924;2023-09-19T06:52:13;99230.47;;;20.98;68.06
37856;BME280;23694;43.274;26.924;2023-09-19T06:55:06;99225.88;;;20.66;67.57
37856;BME280;23694;43.274;26.924;2023-09-19T06:57:49;99234.03;;;21.23;66.88
37856;BME280;23694;43.274;26.924;2023-09-19T07:00:28;99227.03;;;20.21;71.06
37856;BME280;23694;43.274;26.924;2023-09-19T07:06:05;99233.53;;;21.44;65.49
37856;BME280;23694;43.274;26.924;2023-09-19T07:08:56;99243.34;;;21.27;66.37
37856;BME280;23694;43.274;26.924;2023-09-19T07:11:45;99236.19;;;21.36;65.25
37856;BME280;23694;43.274;26.924;2023-09-19T07:14:25;99238.81;;;21.11;65.68
37856;BME280;23694;43.274;26.924;2023-09-19T07:17:05;99238.50;;;20.22;70.27
37856;BME280;23694;43.274;26.924;2023-09-19T07:19:43;99233.47;;;21.11;67.90
37856;BME280;23694;43.274;26.924;2023-09-19T07:22:27;99228.34;;;21.83;63.81
37856;BME280;23694;43.274;26.924;2023-09-19T07:25:08;99231.44;;;20.81;67.56
37856;BME280;23694;43.274;26.924;2023-09-19T07:27:53;99238.13;;;20.43;70.66
37856;BME280;23694;43.274;26.924;2023-09-19T07:33:38;99236.47;;;20.50;70.84
37856;BME280;23694;43.274;26.924;2023-09-19T07:36:25;99222.88;;;20.61;69.31
37856;BME280;23694;43.274;26.924;2023-09-19T07:39:03;99226.41;;;20.36;70.87
37856;BME280;23694;43.274;26.924;2023-09-19T07:41:37;99211.53;;;20.17;72.03
37856;BME280;23694;43.274;26.924;2023-09-19T07:44:21;99227.69;;;20.23;72.12
37856;BME280;23694;43.274;26.924;2023-09-19T07:47:02;99212.56;;;20.66;68.86
37856;BME280;23694;43.274;26.924;2023-09-19T07:49:58;99214.59;;;20.80;68.65
37856;BME280;23694;43.274;26.924;2023-09-19T07:52:43;99221.88;;;20.20;71.23
37856;BME280;23694;43.274;26.924;2023-09-19T07:58:06;99205.44;;;20.24;71.83
37856;BME280;23694;43.274;26.924;2023-09-19T08:00:50;99205.81;;;20.38;71.72
37856;BME280;23694;43.274;26.924;2023-09-19T08:03:25;99211.19;;;21.12;68.60
37856;BME280;23694;43.274;26.924;2023-09-19T08:06:06;99206.06;;;21.60;66.23
37856;BME280;23694;43.274;26.924;2023-09-19T08:08:50;99191.53;;;21.13;67.27
37856;BME280;23694;43.274;26.924;2023-09-19T08:11:31;99193.56;;;21.28;67.17
37856;BME280;23694;43.274;26.924;2023-09-19T08:14:12;99177.75;;;21.26;67.04
37856;BME280;23694;43.274;26.924;2023-09-19T08:17:10;99188.72;;;21.39;66.43
37856;BME280;23694;43.274;26.924;2023-09-19T08:19:51;99173.66;;;21.87;64.30
37856;BME280;23694;43.274;26.924;2023-09-19T08:22:52;99182.34;;;21.81;64.05
37856;BME280;23694;43.274;26.924;2023-09-19T08:31:07;99173.25;;;21.59;64.23
37856;BME280;23694;43.274;26.924;2023-09-19T08:33:45;99167.72;;;21.61;62.66
37856;BME280;23694;43.274;26.924;2023-09-19T08:36:40;99168.50;;;21.86;61.01
37856;BME280;23694;43.274;26.924;2023-09-19T08:42:04;99161.34;;;21.86;61.33
37856;BME280;23694;43.274;26.924;2023-09-19T08:44:45;99148.59;;;21.49;63.20
37856;BME280;23694;43.274;26.924;2023-09-19T08:47:46;99147.59;;;21.34;63.22
37856;BME280;23694;43.274;26.924;2023-09-19T08:50:47;99150.75;;;21.54;59.13
37856;BME280;23694;43.274;26.924;2023-09-19T08:56:34;99126.75;;;22.17;58.64
37856;BME280;23694;43.274;26.924;2023-09-19T09:05:27;99127.16;;;22.37;57.92
37856;BME280;23694;43.274;26.924;2023-09-19T09:08:05;99118.53;;;22.27;57.20
37856;BME280;23694;43.274;26.924;2023-09-19T09:13:34;99118.22;;;22.22;55.93
37856;BME280;23694;43.274;26.924;2023-09-19T09:16:09;99130.56;;;22.85;54.29
37856;BME280;23694;43.274;26.924;2023-09-19T09:19:02;99131.44;;;22.15;55.40
37856;BME280;23694;43.274;26.924;2023-09-19T09:21:42;99124.28;;;21.99;56.09
37856;BME280;23694;43.274;26.924;2023-09-19T09:24:52;99115.53;;;22.53;53.01
37856;BME280;23694;43.274;26.924;2023-09-19T09:27:45;99114.28;;;22.40;52.87
37856;BME280;23694;43.274;26.924;2023-09-19T09:30:46;99100.25;;;23.30;50.53
37856;BME280;23694;43.274;26.924;2023-09-19T09:33:25;99105.22;;;23.18;50.24
37856;BME280;23694;43.274;26.924;2023-09-19T09:36:05;99102.16;;;24.03;49.41
37856;BME280;23694;43.274;26.924;2023-09-19T09:38:50;99102.19;;;23.59;47.86
37856;BME280;23694;43.274;26.924;2023-09-19T09:41:35;99114.09;;;22.96;48.15
37856;BME280;23694;43.274;26.924;2023-09-19T09:44:29;99099.06;;;23.18;48.06
37856;BME280;23694;43.274;26.924;2023-09-19T09:47:05;99102.72;;;23.54;46.82
37856;BME280;23694;43.274;26.924;2023-09-19T09:50:04;99105.34;;;23.39;45.99
37856;BME280;23694;43.274;26.924;2023-09-19T09:53:27;99110.72;;;22.79;47.60
37856;BME280;23694;43.274;26.924;2023-09-19T09:56:22;99096.78;;;22.92;46.91
37856;BME280;23694;43.274;26.924;2023-09-19T09:59:28;99098.38;;;23.53;45.75
37856;BME280;23694;43.274;26.924;2023-09-19T10:02:54;99101.38;;;23.58;45.02
37856;BME280;23694;43.274;26.924;2023-09-19T10:05:34;99093.50;;;23.42;45.22
37856;BME280;23694;43.274;26.924;2023-09-19T10:11:22;99098.97;;;23.78;43.10
37856;BME280;23694;43.274;26.924;2023-09-19T10:14:04;99094.69;;;24.28;39.99
37856;BME280;23694;43.274;26.924;2023-09-19T10:16:46;99088.41;;;23.47;41.33
37856;BME280;23694;43.274;26.924;2023-09-19T10:19:47;99080.28;;;23.99;40.61
37856;BME280;23694;43.274;26.924;2023-09-19T10:28:42;99074.88;;;23.93;40.05
37856;BME280;23694;43.274;26.924;2023-09-19T10:31:37;99066.97;;;24.21;39.52
37856;BME280;23694;43.274;26.924;2023-09-19T10:34:26;99059.44;;;24.46;39.62
37856;BME280;23694;43.274;26.924;2023-09-19T10:36:59;99052.44;;;24.66;38.96
37856;BME280;23694;43.274;26.924;2023-09-19T10:39:46;99064.25;;;25.21;38.86
37856;BME280;23694;43.274;26.924;2023-09-19T10:42:21;99047.53;;;24.48;40.37
37856;BME280;23694;43.274;26.924;2023-09-19T10:45:02;99059.78;;;24.57;40.72
37856;BME280;23694;43.274;26.924;2023-09-19T10:47:44;99051.03;;;24.27;40.85
37856;BME280;23694;43.274;26.924;2023-09-19T10:50:51;99054.53;;;24.28;39.83
37856;BME280;23694;43.274;26.924;2023-09-19T10:53:49;99042.50;;;24.60;39.68
37856;BME280;23694;43.274;26.924;2023-09-19T10:59:38;99033.94;;;25.48;38.31
37856;BME280;23694;43.274;26.924;2023-09-19T11:02:36;99020.91;;;24.89;39.54
37856;BME280;23694;43.274;26.924;2023-09-19T11:05:29;99019.47;;;24.87;40.34
37856;BME280;23694;43.274;26.924;2023-09-19T11:08:20;99016.38;;;25.11;40.86
37856;BME280;23694;43.274;26.924;2023-09-19T11:10:52;99029.19;;;25.91;39.65
37856;BME280;23694;43.274;26.924;2023-09-19T11:13:34;99016.38;;;26.61;38.71
37856;BME280;23694;43.274;26.924;2023-09-19T11:16:10;99011.41;;;26.51;37.47
37856;BME280;23694;43.274;26.924;2023-09-19T11:19:04;99014.22;;;25.00;39.25
37856;BME280;23694;43.274;26.924;2023-09-19T11:22:04;99008.13;;;25.13;38.76
37856;BME280;23694;43.274;26.924;2023-09-19T11:24:47;99002.66;;;25.27;38.60
37856;BME280;23694;43.274;26.924;2023-09-19T11:27:29;99006.16;;;25.63;38.00
37856;BME280;23694;43.274;26.924;2023-09-19T11:33:37;98986.31;;;25.22;38.06
37856;BME280;23694;43.274;26.924;2023-09-19T11:36:37;98997.91;;;25.29;38.26
37856;BME280;23694;43.274;26.924;2023-09-19T11:39:27;98990.94;;;25.70;36.80
37856;BME280;23694;43.274;26.924;2023-09-19T11:47:38;98987.75;;;24.90;38.57
37856;BME280;23694;43.274;26.924;2023-09-19T11:50:21;98972.56;;;25.67;37.70
37856;BME280;23694;43.274;26.924;2023-09-19T11:53:11;98974.16;;;26.15;37.03
37856;BME280;23694;43.274;26.924;2023-09-19T11:55:56;98985.97;;;25.32;37.23
37856;BME280;23694;43.274;26.924;2023-09-19T11:58:37;98981.63;;;25.66;36.81
37856;BME280;23694;43.274;26.924;2023-09-19T12:04:07;98964.84;;;26.05;35.94
37856;BME280;23694;43.274;26.924;2023-09-19T12:06:47;98961.63;;;26.42;34.97
37856;BME280;23694;43.274;26.924;2023-09-19T12:09:36;98962.69;;;26.68;35.16
37856;BME280;23694;43.274;26.924;2023-09-19T12:12:08;98963.06;;;26.65;35.33
37856;BME280;23694;43.274;26.924;2023-09-19T12:14:50;98965.75;;;27.11;34.00
37856;BME280;23694;43.274;26.924;2023-09-19T12:17:54;98965.69;;;27.31;33.88
37856;BME280;23694;43.274;26.924;2023-09-19T12:20:52;98974.41;;;27.20;34.06
37856;BME280;23694;43.274;26.924;2023-09-19T12:23:31;98968.53;;;25.97;36.20
37856;BME280;23694;43.274;26.924;2023-09-19T12:26:05;98963.22;;;26.10;35.74
37856;BME280;23694;43.274;26.924;2023-09-19T12:28:50;98958.41;;;25.99;35.66
37856;BME280;23694;43.274;26.924;2023-09-19T12:31:31;98962.53;;;25.95;35.95
37856;BME280;23694;43.274;26.924;2023-09-19T12:34:41;98952.94;;;26.53;35.33
37856;BME280;23694;43.274;26.924;2023-09-19T12:37:23;98943.84;;;26.81;34.70
37856;BME280;23694;43.274;26.924;2023-09-19T12:43:22;98940.75;;;26.84;34.41
37856;BME280;23694;43.274;26.924;2023-09-19T12:45:58;98940.97;;;26.69;34.10
37856;BME280;23694;43.274;26.924;2023-09-19T12:48:39;98948.78;;;27.10;34.57
37856;BME280;23694;43.274;26.924;2023-09-19T12:54:23;98937.00;;;27.05;34.21
37856;BME280;23694;43.274;26.924;2023-09-19T12:57:37;98933.88;;;27.14;33.59
37856;BME280;23694;43.274;26.924;2023-09-19T13:00:23;98940.16;;;26.69;34.18
37856;BME280;23694;43.274;26.924;2023-09-19T13:03:29;98935.13;;;26.13;34.97
37856;BME280;23694;43.274;26.924;2023-09-19T13:06:06;98938.22;;;26.16;35.49
37856;BME280;23694;43.274;26.924;2023-09-19T13:09:07;98936.00;;;26.73;35.10
37856;BME280;23694;43.274;26.924;2023-09-19T13:11:50;98928.78;;;26.34;34.27
37856;BME280;23694;43.274;26.924;2023-09-19T13:20:35;98930.19;;;26.63;34.03
37856;BME280;23694;43.274;26.924;2023-09-19T13:23:35;98918.41;;;26.17;34.75
37856;BME280;23694;43.274;26.924;2023-09-19T13:26:20;98916.78;;;25.49;36.38
37856;BME280;23694;43.274;26.924;2023-09-19T13:29:02;98912.16;;;25.84;35.35
37856;BME280;23694;43.274;26.924;2023-09-19T13:34:46;98913.81;;;25.98;35.74
37856;BME280;23694;43.274;26.924;2023-09-19T13:37:34;98915.53;;;26.32;34.49
37856;BME280;23694;43.274;26.924;2023-09-19T13:40:15;98913.28;;;26.56;34.10
37856;BME280;23694;43.274;26.924;2023-09-19T13:43:04;98913.25;;;26.82;33.96
37856;BME280;23694;43.274;26.924;2023-09-19T13:45:53;98910.91;;;27.19;33.63
37856;BME280;23694;43.274;26.924;2023-09-19T13:48:33;98908.50;;;27.55;32.94
37856;BME280;23694;43.274;26.924;2023-09-19T13:51:06;98905.34;;;27.13;33.48
37856;BME280;23694;43.274;26.924;2023-09-19T13:56:40;98900.56;;;27.22;33.25
37856;BME280;23694;43.274;26.924;2023-09-19T13:59:18;98910.88;;;27.32;33.48
37856;BME280;23694;43.274;26.924;2023-09-19T14:02:03;98904.78;;;26.32;35.13
37856;BME280;23694;43.274;26.924;2023-09-19T14:04:44;98903.13;;;26.58;34.40
37856;BME280;23694;43.274;26.924;2023-09-19T14:07:31;98901.91;;;26.73;34.80
37856;BME280;23694;43.274;26.924;2023-09-19T14:10:19;98893.03;;;26.66;34.45
37856;BME280;23694;43.274;26.924;2023-09-19T14:13:03;98893.03;;;26.40;34.86
37856;BME280;23694;43.274;26.924;2023-09-19T14:15:48;98893.84;;;26.53;34.11
37856;BME280;23694;43.274;26.924;2023-09-19T14:18:24;98893.22;;;26.71;34.02
37856;BME280;23694;43.274;26.924;2023-09-19T14:21:06;98892.63;;;26.69;34.59
37856;BME280;23694;43.274;26.924;2023-09-19T14:23:49;98897.91;;;25.97;35.99
37856;BME280;23694;43.274;26.924;2023-09-19T14:26:35;98896.09;;;26.10;35.53
37856;BME280;23694;43.274;26.924;2023-09-19T14:29:11;98892.38;;;26.18;35.49
37856;BME280;23694;43.274;26.924;2023-09-19T14:31:51;98898.41;;;26.40;35.47
37856;BME280;23694;43.274;26.924;2023-09-19T14:34:26;98891.97;;;26.08;35.64
37856;BME280;23694;43.274;26.924;2023-09-19T14:37:00;98884.13;;;26.26;35.21
37856;BME280;23694;43.274;26.924;2023-09-19T14:39:46;98885.38;;;26.23;35.45
37856;BME280;23694;43.274;26.924;2023-09-19T14:45:03;98892.38;;;26.31;35.44
37856;BME280;23694;43.274;26.924;2023-09-19T14:47:39;98897.16;;;26.42;35.20
37856;BME280;23694;43.274;26.924;2023-09-19T14:53:25;98886.19;;;26.24;35.91
37856;BME280;23694;43.274;26.924;2023-09-19T14:56:05;98890.75;;;26.30;35.70
37856;BME280;23694;43.274;26.924;2023-09-19T14:58:50;98894.88;;;26.26;35.74
37856;BME280;23694;43.274;26.924;2023-09-19T15:01:28;98894.66;;;26.21;35.67
37856;BME280;23694;43.274;26.924;2023-09-19T15:04:05;98894.78;;;25.73;36.46
37856;BME280;23694;43.274;26.924;2023-09-19T15:06:46;98894.53;;;25.62;37.44
37856;BME280;23694;43.274;26.924;2023-09-19T15:09:33;98896.44;;;25.81;36.84
37856;BME280;23694;43.274;26.924;2023-09-19T15:12:07;98893.16;;;25.79;37.05
37856;BME280;23694;43.274;26.924;2023-09-19T15:14:45;98890.94;;;26.02;36.63
37856;BME280;23694;43.274;26.924;2023-09-19T15:17:24;98897.69;;;25.78;37.37
37856;BME280;23694;43.274;26.924;2023-09-19T15:20:01;98894.81;;;25.80;37.17
37856;BME280;23694;43.274;26.924;2023-09-19T15:22:49;98894.94;;;25.58;37.95
37856;BME280;23694;43.274;26.924;2023-09-19T15:28:33;98892.66;;;25.55;38.71
37856;BME280;23694;43.274;26.924;2023-09-19T15:31:10;98906.88;;;25.49;38.38
37856;BME280;23694;43.274;26.924;2023-09-19T15:33:57;98900.88;;;25.47;38.53
37856;BME280;23694;43.274;26.924;2023-09-19T15:36:39;98899.31;;;25.66;39.19
37856;BME280;23694;43.274;26.924;2023-09-19T15:39:33;98909.88;;;25.81;39.44
37856;BME280;23694;43.274;26.924;2023-09-19T15:42:08;98907.41;;;25.92;40.51
37856;BME280;23694;43.274;26.924;2023-09-19T15:47:27;98898.72;;;25.84;43.25
37856;BME280;23694;43.274;26.924;2023-09-19T15:50:11;98900.56;;;25.70;42.47
37856;BME280;23694;43.274;26.924;2023-09-19T15:53:01;98901.81;;;25.74;42.71
37856;BME280;23694;43.274;26.924;2023-09-19T15:55:49;98911.19;;;25.50;43.08
37856;BME280;23694;43.274;26.924;2023-09-19T15:58:31;98904.81;;;25.51;43.19
37856;BME280;23694;43.274;26.924;2023-09-19T16:01:07;98911.16;;;25.37;44.08
37856;BME280;23694;43.274;26.924;2023-09-19T16:03:52;98909.03;;;25.33;44.07
37856;BME280;23694;43.274;26.924;2023-09-19T16:06:30;98916.25;;;25.32;43.78
37856;BME280;23694;43.274;26.924;2023-09-19T16:09:06;98913.16;;;25.28;43.75
37856;BME280;23694;43.274;26.924;2023-09-19T16:11:42;98909.16;;;25.11;44.33
37856;BME280;23694;43.274;26.924;2023-09-19T16:14:29;98918.47;;;25.15;44.81
37856;BME280;23694;43.274;26.924;2023-09-19T16:17:07;98916.88;;;24.93;45.40
37856;BME280;23694;43.274;26.924;2023-09-19T16:19:40;98910.94;;;24.20;48.38
37856;BME280;23694;43.274;26.924;2023-09-19T16:22:19;98922.50;;;23.85;50.09
37856;BME280;23694;43.274;26.924;2023-09-19T16:25:04;98916.66;;;23.75;51.12
37856;BME280;23694;43.274;26.924;2023-09-19T16:30:54;98925.00;;;23.06;54.56
37856;BME280;23694;43.274;26.924;2023-09-19T16:33:39;98924.94;;;22.85;55.50
37856;BME280;23694;43.274;26.924;2023-09-19T16:36:21;98928.22;;;22.49;57.11
37856;BME280;23694;43.274;26.924;2023-09-19T16:39:00;98936.78;;;22.44;57.83
37856;BME280;23694;43.274;26.924;2023-09-19T16:41:45;98931.38;;;22.15;59.95
37856;BME280;23694;43.274;26.924;2023-09-19T16:44:26;98933.72;;;22.10;60.39
37856;BME280;23694;43.274;26.924;2023-09-19T16:47:06;98934.22;;;22.13;60.48
37856;BME280;23694;43.274;26.924;2023-09-19T16:49:44;98934.41;;;22.12;61.07
37856;BME280;23694;43.274;26.924;2023-09-19T16:52:25;98945.75;;;22.29;60.79